createdAt,value
2023-06-11T00:02:04.982Z,18.18
2023-06-11T00:04:31.433Z,18.12
2023-06-11T00:06:57.891Z,18.09
2023-06-11T00:09:24.684Z,18.04
2023-06-11T00:11:51.449Z,17.99
2023-06-11T00:14:17.883Z,17.89
2023-06-11T00:16:44.488Z,17.82
2023-06-11T00:19:11.701Z,17.74
2023-06-11T00:21:38.224Z,17.67
2023-06-11T00:24:05.163Z,17.58
2023-06-11T00:26:31.626Z,17.52
2023-06-11T00:28:58.006Z,17.49
2023-06-11T00:31:24.411Z,17.47
2023-06-11T00:33:50.824Z,17.44
2023-06-11T00:36:17.205Z,17.41
2023-06-11T00:38:43.598Z,17.37
2023-06-11T00:41:09.980Z,17.32
2023-06-11T00:43:36.383Z,17.27
2023-06-11T00:46:03.003Z,17.22
2023-06-11T00:48:29.447Z,17.13
2023-06-11T00:50:55.925Z,17.07
2023-06-11T00:53:22.368Z,17.03
2023-06-11T00:55:48.783Z,17.00
2023-06-11T00:58:17.077Z,16.94
2023-06-11T01:00:46.135Z,16.91
2023-06-11T01:03:15.605Z,16.87
2023-06-11T01:05:42.314Z,16.83
2023-06-11T01:08:08.884Z,16.77
2023-06-11T01:10:35.304Z,16.74
2023-06-11T01:13:01.944Z,16.68
2023-06-11T01:15:28.334Z,16.64
2023-06-11T01:17:59.981Z,16.60
2023-06-11T01:20:33.683Z,16.55
2023-06-11T01:23:19.509Z,16.50
2023-06-11T01:26:15.294Z,16.49
2023-06-11T01:28:44.270Z,16.43
2023-06-11T01:31:14.521Z,16.41
2023-06-11T01:33:42.544Z,16.35
2023-06-11T01:36:09.173Z,16.31
2023-06-11T01:38:35.592Z,16.22
2023-06-11T01:41:02.846Z,16.14
2023-06-11T01:43:29.307Z,16.10
2023-06-11T01:45:56.437Z,16.05
2023-06-11T01:48:22.844Z,16.03
2023-06-11T01:50:49.262Z,15.94
2023-06-11T01:53:15.689Z,15.88
2023-06-11T01:55:42.066Z,15.83
2023-06-11T01:58:08.481Z,15.78
2023-06-11T02:00:34.927Z,15.71
2023-06-11T02:03:01.396Z,15.68
2023-06-11T02:05:27.843Z,15.65
2023-06-11T02:07:54.261Z,15.63
2023-06-11T02:10:20.666Z,15.60
2023-06-11T02:12:47.282Z,15.60
2023-06-11T02:15:14.577Z,15.61
2023-06-11T02:17:41.236Z,15.63
2023-06-11T02:20:08.189Z,15.60
2023-06-11T02:22:35.405Z,15.56
2023-06-11T02:25:02.893Z,15.52
2023-06-11T02:27:29.276Z,15.49
2023-06-11T02:29:55.700Z,15.48
2023-06-11T02:32:22.126Z,15.42
2023-06-11T02:34:48.692Z,15.36
2023-06-11T02:37:15.178Z,15.34
2023-06-11T02:39:41.559Z,15.33
2023-06-11T02:42:08.507Z,15.30
2023-06-11T02:44:35.405Z,15.27
2023-06-11T02:47:01.861Z,15.27
2023-06-11T02:49:28.316Z,15.25
2023-06-11T02:51:54.744Z,15.19
2023-06-11T02:54:21.257Z,15.13
2023-06-11T02:56:47.714Z,15.09
2023-06-11T02:59:14.172Z,15.04
2023-06-11T03:01:40.622Z,15.02
2023-06-11T03:04:07.110Z,15.01
2023-06-11T03:06:34.412Z,15.01
2023-06-11T03:09:00.784Z,15.00
2023-06-11T03:11:27.340Z,14.98
2023-06-11T03:13:53.751Z,14.94
2023-06-11T03:16:20.235Z,15.00
2023-06-11T03:18:46.866Z,15.05
2023-06-11T03:21:13.340Z,15.16
2023-06-11T03:23:40.101Z,15.28
2023-06-11T03:26:06.529Z,15.44
2023-06-11T03:28:32.913Z,15.58
2023-06-11T03:30:59.596Z,15.70
2023-06-11T03:33:25.963Z,15.84
2023-06-11T03:35:52.528Z,15.94
2023-06-11T03:38:18.911Z,16.02
2023-06-11T03:40:45.285Z,16.15
2023-06-11T03:43:11.729Z,16.22
2023-06-11T03:45:38.078Z,16.35
2023-06-11T03:48:04.785Z,16.47
2023-06-11T03:50:31.454Z,16.60
2023-06-11T03:52:58.124Z,16.72
2023-06-11T03:55:24.546Z,16.83
2023-06-11T03:57:50.988Z,16.93
2023-06-11T04:00:17.630Z,17.06
2023-06-11T04:02:44.145Z,17.16
2023-06-11T04:05:10.828Z,17.25
2023-06-11T04:07:37.312Z,17.33
2023-06-11T04:10:03.805Z,17.37
2023-06-11T04:12:30.259Z,17.38
2023-06-11T04:14:57.393Z,17.36
2023-06-11T04:17:23.949Z,17.32
2023-06-11T04:19:50.450Z,17.28
2023-06-11T04:22:17.005Z,17.24
2023-06-11T04:24:43.498Z,17.21
2023-06-11T04:27:10.058Z,17.22
2023-06-11T04:29:36.477Z,17.33
2023-06-11T04:32:03.029Z,17.49
2023-06-11T04:34:30.233Z,17.62
2023-06-11T04:36:57.665Z,17.73
2023-06-11T04:39:24.305Z,17.84
2023-06-11T04:41:50.793Z,17.94
2023-06-11T04:44:17.553Z,18.07
2023-06-11T04:46:44.024Z,18.19
2023-06-11T04:49:10.478Z,18.31
2023-06-11T04:51:36.877Z,18.46
2023-06-11T04:54:03.634Z,18.84
2023-06-11T04:56:30.042Z,19.39
2023-06-11T04:58:56.469Z,19.89
2023-06-11T05:01:22.901Z,20.21
2023-06-11T05:03:49.599Z,20.41
2023-06-11T05:06:16.085Z,20.59
2023-06-11T05:08:42.522Z,20.80
2023-06-11T05:11:08.964Z,21.10
2023-06-11T05:13:35.394Z,21.54
2023-06-11T05:16:01.865Z,22.10
2023-06-11T05:18:29.463Z,22.82
2023-06-11T05:20:55.906Z,23.43
2023-06-11T05:23:22.555Z,23.99
2023-06-11T05:25:49.037Z,24.58
2023-06-11T05:28:15.970Z,25.09
2023-06-11T05:30:43.001Z,25.65
2023-06-11T05:33:09.527Z,26.02
2023-06-11T05:35:36.361Z,26.27
2023-06-11T05:38:02.886Z,26.52
2023-06-11T05:40:29.298Z,26.97
2023-06-11T05:42:55.860Z,27.47
2023-06-11T05:45:22.266Z,27.70
2023-06-11T05:47:48.749Z,27.93
2023-06-11T05:50:15.182Z,28.15
2023-06-11T05:52:41.632Z,28.27
2023-06-11T05:55:08.222Z,28.60
2023-06-11T05:57:34.729Z,28.78
2023-06-11T06:00:01.090Z,29.15
2023-06-11T06:02:30.018Z,29.14
2023-06-11T06:04:58.127Z,29.43
2023-06-11T06:07:24.646Z,29.63
2023-06-11T06:09:51.063Z,29.91
2023-06-11T06:12:17.475Z,30.13
2023-06-11T06:14:43.827Z,30.31
2023-06-11T06:17:10.204Z,30.29
2023-06-11T06:19:36.575Z,30.23
2023-06-11T06:22:03.007Z,30.57
2023-06-11T06:24:29.401Z,30.78
2023-06-11T06:26:55.791Z,30.80
2023-06-11T06:29:22.174Z,30.94
2023-06-11T06:31:48.605Z,30.62
2023-06-11T06:34:15.115Z,30.76
2023-06-11T06:36:41.521Z,30.60
2023-06-11T06:39:08.073Z,30.45
2023-06-11T06:41:34.466Z,30.49
2023-06-11T06:44:00.877Z,30.56
2023-06-11T06:46:27.370Z,30.58
2023-06-11T06:48:53.865Z,30.92
2023-06-11T06:51:20.387Z,31.12
2023-06-11T06:53:47.690Z,31.30
2023-06-11T06:56:14.800Z,31.49
2023-06-11T06:58:41.629Z,31.50
2023-06-11T07:01:08.097Z,31.35
2023-06-11T07:03:34.529Z,31.39
2023-06-11T07:06:01.563Z,31.39
2023-06-11T07:08:28.131Z,31.44
2023-06-11T07:10:55.911Z,31.18
2023-06-11T07:13:25.283Z,31.10
2023-06-11T07:15:52.278Z,31.19
2023-06-11T07:18:18.862Z,31.21
2023-06-11T07:20:45.700Z,31.35
2023-06-11T07:23:12.439Z,31.43
2023-06-11T07:25:38.945Z,31.49
2023-06-11T07:28:06.819Z,31.45
2023-06-11T07:30:34.126Z,31.78
2023-06-11T07:33:00.790Z,31.95
2023-06-11T07:35:27.848Z,31.97
2023-06-11T07:37:54.737Z,31.63
2023-06-11T07:40:21.665Z,31.77
2023-06-11T07:42:48.798Z,32.03
2023-06-11T07:45:16.266Z,32.19
2023-06-11T07:47:43.051Z,32.26
2023-06-11T07:50:11.331Z,32.40
2023-06-11T07:52:38.190Z,32.34
2023-06-11T07:55:05.011Z,32.57
2023-06-11T07:57:31.380Z,32.73
2023-06-11T07:59:57.837Z,32.91
2023-06-11T08:02:24.432Z,32.93
2023-06-11T08:04:50.879Z,32.47
2023-06-11T08:07:17.350Z,32.48
2023-06-11T08:09:44.173Z,32.43
2023-06-11T08:12:10.773Z,32.37
2023-06-11T08:14:37.337Z,32.40
2023-06-11T08:17:04.283Z,32.49
2023-06-11T08:19:30.790Z,32.73
2023-06-11T08:21:57.455Z,32.93
2023-06-11T08:24:23.952Z,33.13
2023-06-11T08:26:50.399Z,32.94
2023-06-11T08:29:17.059Z,32.92
2023-06-11T08:31:44.194Z,32.87
2023-06-11T08:34:10.984Z,32.81
2023-06-11T08:36:37.549Z,32.95
2023-06-11T08:39:04.002Z,33.00
2023-06-11T08:41:30.455Z,32.96
2023-06-11T08:44:00.422Z,32.95
2023-06-11T08:46:26.890Z,33.01
2023-06-11T08:49:19.334Z,32.89
2023-06-11T08:51:46.521Z,32.73
2023-06-11T08:54:13.465Z,32.78
2023-06-11T08:56:39.902Z,32.58
2023-06-11T08:59:07.496Z,32.61
2023-06-11T09:01:33.975Z,32.47
2023-06-11T09:04:00.643Z,32.25
2023-06-11T09:06:27.428Z,32.38
2023-06-11T09:09:00.657Z,32.54
2023-06-11T09:11:33.877Z,32.58
2023-06-11T09:14:00.402Z,32.48
2023-06-11T09:16:26.908Z,32.32
2023-06-11T09:18:55.740Z,32.31
2023-06-11T09:21:23.971Z,32.29
2023-06-11T09:23:50.507Z,32.15
2023-06-11T09:26:18.026Z,31.88
2023-06-11T09:28:44.465Z,31.80
2023-06-11T09:31:10.854Z,31.73
2023-06-11T09:33:37.930Z,31.77
2023-06-11T09:36:04.602Z,31.68
2023-06-11T09:38:34.479Z,31.76
2023-06-11T09:41:01.409Z,31.91
2023-06-11T09:43:27.839Z,32.08
2023-06-11T09:45:55.900Z,32.18
2023-06-11T09:48:26.175Z,32.18
2023-06-11T09:50:54.262Z,32.15
2023-06-11T09:53:22.817Z,32.29
2023-06-11T09:56:05.690Z,32.30
2023-06-11T09:58:39.772Z,32.30
2023-06-11T10:01:07.798Z,32.08
2023-06-11T10:03:34.727Z,31.89
2023-06-11T10:06:06.351Z,31.89
2023-06-11T10:08:35.371Z,31.80
2023-06-11T10:11:03.479Z,31.67
2023-06-11T10:13:31.442Z,31.53
2023-06-11T10:16:02.855Z,31.40
2023-06-11T10:18:29.606Z,31.47
2023-06-11T10:20:59.370Z,31.50
2023-06-11T10:23:40.740Z,31.60
2023-06-11T10:26:08.855Z,31.70
2023-06-11T10:28:36.119Z,31.66
2023-06-11T10:31:02.689Z,31.69
2023-06-11T10:33:43.199Z,31.72
2023-06-11T10:36:09.725Z,31.76
2023-06-11T10:38:39.358Z,31.77
2023-06-11T10:41:06.199Z,31.72
2023-06-11T10:43:32.863Z,31.74
2023-06-11T10:46:06.602Z,31.68
2023-06-11T10:48:33.210Z,31.70
2023-06-11T10:51:03.684Z,31.65
2023-06-11T10:53:40.969Z,31.77
2023-06-11T10:56:08.828Z,31.90
2023-06-11T10:58:35.818Z,31.99
2023-06-11T11:01:02.366Z,32.00
2023-06-11T11:03:29.007Z,32.08
2023-06-11T11:05:55.580Z,32.01
2023-06-11T11:08:24.853Z,32.12
2023-06-11T11:10:56.789Z,31.84
2023-06-11T11:13:23.757Z,31.80
2023-06-11T11:15:51.900Z,31.59
2023-06-11T11:18:18.877Z,31.61
2023-06-11T11:20:45.521Z,31.62
2023-06-11T11:23:12.172Z,31.69
2023-06-11T11:25:38.609Z,31.89
2023-06-11T11:28:05.030Z,31.95
2023-06-11T11:30:31.466Z,31.97
2023-06-11T11:32:58.513Z,31.77
2023-06-11T11:35:25.062Z,31.73
2023-06-11T11:37:51.548Z,31.74
2023-06-11T11:40:22.652Z,31.77
2023-06-11T11:42:50.596Z,31.84
2023-06-11T11:45:18.219Z,31.82
2023-06-11T11:47:45.890Z,31.78
2023-06-11T11:50:23.384Z,31.85
2023-06-11T11:53:09.957Z,31.85
2023-06-11T11:55:52.418Z,31.71
2023-06-11T11:58:23.137Z,31.84
2023-06-11T12:00:54.970Z,31.91
2023-06-11T12:03:23.097Z,31.96
2023-06-11T12:06:04.207Z,32.03
2023-06-11T12:08:32.443Z,32.09
2023-06-11T12:10:59.912Z,32.20
2023-06-11T12:13:26.731Z,32.12
2023-06-11T12:15:54.393Z,32.08
2023-06-11T12:18:21.279Z,32.05
2023-06-11T12:20:47.800Z,32.01
2023-06-11T12:23:14.352Z,32.00
2023-06-11T12:25:40.950Z,31.80
2023-06-11T12:28:07.372Z,31.73
2023-06-11T12:30:34.979Z,31.71
2023-06-11T12:33:01.446Z,31.71
2023-06-11T12:35:29.436Z,31.77
2023-06-11T12:37:56.131Z,31.85
2023-06-11T12:40:22.769Z,31.73
2023-06-11T12:42:49.593Z,31.65
2023-06-11T12:45:16.074Z,31.57
2023-06-11T12:47:42.611Z,31.70
2023-06-11T12:50:09.542Z,31.79
2023-06-11T12:52:36.163Z,31.78
2023-06-11T12:55:02.584Z,31.84
2023-06-11T12:57:29.150Z,31.90
2023-06-11T12:59:55.549Z,31.94
2023-06-11T13:02:21.947Z,32.09
2023-06-11T13:04:48.402Z,31.90
2023-06-11T13:07:14.904Z,31.61
2023-06-11T13:09:41.341Z,31.46
2023-06-11T13:12:08.295Z,31.29
2023-06-11T13:14:34.683Z,31.31
2023-06-11T13:17:01.100Z,31.46
2023-06-11T13:19:27.521Z,31.26
2023-06-11T13:21:54.339Z,31.10
2023-06-11T13:24:20.782Z,31.13
2023-06-11T13:26:47.268Z,31.31
2023-06-11T13:29:13.695Z,31.50
2023-06-11T13:31:40.273Z,31.62
2023-06-11T13:34:06.853Z,31.55
2023-06-11T13:36:33.437Z,31.60
2023-06-11T13:38:59.845Z,31.61
2023-06-11T13:41:26.284Z,31.59
2023-06-11T13:43:52.687Z,31.69
2023-06-11T13:46:19.211Z,31.75
2023-06-11T13:48:45.775Z,31.67
2023-06-11T13:51:12.237Z,31.46
2023-06-11T13:53:38.915Z,31.25
2023-06-11T13:56:05.428Z,31.02
2023-06-11T13:58:31.896Z,30.69
2023-06-11T14:00:58.367Z,30.61
2023-06-11T14:03:24.893Z,30.61
2023-06-11T14:05:51.468Z,30.87
2023-06-11T14:08:17.962Z,30.98
2023-06-11T14:10:47.966Z,31.12
2023-06-11T14:13:14.480Z,31.27
2023-06-11T14:15:40.916Z,31.28
2023-06-11T14:18:07.390Z,31.37
2023-06-11T14:20:33.837Z,31.59
2023-06-11T14:23:00.330Z,31.68
2023-06-11T14:25:26.746Z,31.79
2023-06-11T14:27:53.149Z,31.80
2023-06-11T14:30:19.549Z,31.68
2023-06-11T14:32:46.031Z,31.50
2023-06-11T14:35:12.527Z,31.13
2023-06-11T14:37:38.947Z,30.69
2023-06-11T14:40:06.180Z,30.42
2023-06-11T14:42:32.621Z,30.36
2023-06-11T14:44:59.095Z,30.48
2023-06-11T14:47:25.570Z,30.57
2023-06-11T14:49:52.020Z,30.64
2023-06-11T14:52:18.423Z,30.73
2023-06-11T14:54:44.866Z,30.75
2023-06-11T14:57:16.009Z,30.80
2023-06-11T14:59:43.308Z,30.94
2023-06-11T15:02:10.362Z,31.06
2023-06-11T15:04:37.384Z,31.18
2023-06-11T15:07:03.989Z,31.21
2023-06-11T15:09:30.362Z,31.36
2023-06-11T15:11:56.786Z,31.37
2023-06-11T15:14:23.180Z,31.39
2023-06-11T15:16:49.747Z,31.19
2023-06-11T15:19:16.284Z,31.06
2023-06-11T15:21:42.725Z,31.05
2023-06-11T15:24:09.170Z,30.97
2023-06-11T15:26:35.596Z,30.89
2023-06-11T15:29:02.029Z,30.95
2023-06-11T15:31:28.482Z,30.98
2023-06-11T15:33:55.192Z,31.08
2023-06-11T15:36:21.570Z,31.03
2023-06-11T15:38:47.912Z,30.82
2023-06-11T15:41:16.305Z,30.84
2023-06-11T15:43:43.000Z,30.73
2023-06-11T15:46:09.405Z,30.64
2023-06-11T15:48:36.981Z,30.62
2023-06-11T15:51:03.477Z,30.51
2023-06-11T15:53:30.156Z,30.41
2023-06-11T15:55:56.573Z,30.37
2023-06-11T15:58:23.020Z,30.42
2023-06-11T16:00:49.468Z,30.27
2023-06-11T16:03:15.965Z,30.31
2023-06-11T16:05:42.491Z,30.22
2023-06-11T16:08:08.919Z,30.13
2023-06-11T16:10:35.325Z,30.13
2023-06-11T16:13:01.776Z,29.94
2023-06-11T16:15:28.189Z,29.95
2023-06-11T16:17:54.735Z,29.93
2023-06-11T16:20:21.383Z,29.87
2023-06-11T16:22:47.748Z,29.89
2023-06-11T16:25:14.459Z,29.83
2023-06-11T16:27:41.107Z,29.77
2023-06-11T16:30:08.596Z,29.67
2023-06-11T16:32:35.136Z,29.75
2023-06-11T16:35:03.721Z,29.73
2023-06-11T16:37:30.356Z,29.79
2023-06-11T16:39:56.918Z,29.73
2023-06-11T16:42:23.307Z,29.72
2023-06-11T16:44:49.703Z,29.58
2023-06-11T16:47:16.558Z,29.63
2023-06-11T16:49:43.121Z,29.63
2023-06-11T16:52:09.697Z,29.61
2023-06-11T16:54:36.136Z,29.39
2023-06-11T16:57:02.721Z,29.45
2023-06-11T16:59:29.210Z,29.29
2023-06-11T17:01:55.615Z,29.32
2023-06-11T17:04:22.221Z,29.35
2023-06-11T17:06:48.667Z,29.33
2023-06-11T17:09:15.098Z,29.19
2023-06-11T17:11:41.503Z,29.14
2023-06-11T17:14:07.932Z,29.16
2023-06-11T17:16:34.402Z,29.16
2023-06-11T17:19:00.890Z,29.12
2023-06-11T17:21:27.312Z,29.10
2023-06-11T17:23:53.699Z,29.06
2023-06-11T17:26:20.140Z,29.03
2023-06-11T17:28:46.543Z,29.06
2023-06-11T17:31:12.965Z,29.04
2023-06-11T17:33:39.511Z,28.90
2023-06-11T17:36:05.998Z,28.76
2023-06-11T17:38:32.376Z,28.73
2023-06-11T17:40:58.745Z,28.62
2023-06-11T17:43:25.153Z,28.54
2023-06-11T17:45:51.578Z,28.56
2023-06-11T17:48:18.128Z,28.50
2023-06-11T17:50:44.841Z,28.35
2023-06-11T17:53:11.277Z,28.36
2023-06-11T17:55:37.713Z,28.33
2023-06-11T17:58:04.305Z,28.36
2023-06-11T18:00:30.684Z,28.32
2023-06-11T18:02:57.171Z,28.25
2023-06-11T18:05:23.637Z,28.24
2023-06-11T18:07:50.025Z,28.24
2023-06-11T18:10:17.516Z,28.24
2023-06-11T18:12:44.668Z,28.09
2023-06-11T18:17:44.392Z,28.03
2023-06-11T18:20:11.160Z,28.02
2023-06-11T18:22:37.703Z,27.92
2023-06-11T18:25:04.316Z,27.79
2023-06-11T18:27:30.794Z,27.77
2023-06-11T18:29:57.256Z,27.76
2023-06-11T18:32:23.739Z,27.67
2023-06-11T18:34:50.203Z,27.66
2023-06-11T18:37:16.730Z,27.55
2023-06-11T18:39:43.158Z,27.46
2023-06-11T18:42:16.598Z,27.49
2023-06-11T18:44:44.287Z,27.41
2023-06-11T18:47:10.810Z,27.29
2023-06-11T18:49:37.679Z,27.17
2023-06-11T18:52:05.328Z,27.15
2023-06-11T18:54:31.808Z,27.04
2023-06-11T18:56:58.308Z,27.00
2023-06-11T18:59:24.728Z,26.99
2023-06-11T19:01:51.202Z,26.90
2023-06-11T19:04:17.775Z,26.84
2023-06-11T19:06:44.329Z,26.82
2023-06-11T19:09:10.777Z,26.69
2023-06-11T19:11:38.119Z,26.57
2023-06-11T19:14:04.589Z,26.44
2023-06-11T19:16:30.998Z,26.39
2023-06-11T19:18:57.456Z,26.31
2023-06-11T19:21:23.997Z,26.23
2023-06-11T19:23:50.563Z,26.13
2023-06-11T19:26:17.104Z,26.02
2023-06-11T19:28:43.584Z,25.92
2023-06-11T19:31:10.043Z,25.81
2023-06-11T19:33:36.477Z,25.72
2023-06-11T19:36:03.006Z,25.58
2023-06-11T19:38:29.466Z,25.52
2023-06-11T19:40:55.919Z,25.42
2023-06-11T19:43:22.341Z,25.38
2023-06-11T19:45:48.756Z,25.30
2023-06-11T19:48:15.257Z,25.25
2023-06-11T19:50:41.679Z,25.14
2023-06-11T19:53:08.080Z,25.06
2023-06-11T19:55:35.001Z,25.01
2023-06-11T19:58:01.389Z,24.92
2023-06-11T20:00:28.125Z,24.85
2023-06-11T20:02:54.773Z,24.81
2023-06-11T20:05:21.552Z,24.75
2023-06-11T20:07:48.089Z,24.67
2023-06-11T20:10:14.724Z,24.58
2023-06-11T20:12:41.372Z,24.52
2023-06-11T20:15:08.289Z,24.43
2023-06-11T20:17:34.743Z,24.24
2023-06-11T20:20:01.169Z,24.23
2023-06-11T20:22:27.746Z,24.24
2023-06-11T20:24:54.154Z,24.21
2023-06-11T20:27:20.590Z,24.19
2023-06-11T20:29:47.004Z,24.12
2023-06-11T20:32:13.573Z,24.09
2023-06-11T20:34:40.063Z,24.06
2023-06-11T20:37:06.661Z,23.98
2023-06-11T20:39:33.054Z,23.91
2023-06-11T20:41:59.447Z,23.83
2023-06-11T20:44:25.929Z,23.81
2023-06-11T20:46:52.488Z,23.75
2023-06-11T20:49:18.972Z,23.69
2023-06-11T20:51:45.396Z,23.59
2023-06-11T20:54:11.785Z,23.58
2023-06-11T20:56:38.197Z,23.55
2023-06-11T20:59:04.771Z,23.51
2023-06-11T21:01:31.453Z,23.44
2023-06-11T21:03:57.983Z,23.42
2023-06-11T21:06:24.447Z,23.34
2023-06-11T21:08:50.901Z,23.27
2023-06-11T21:11:17.329Z,23.15
2023-06-11T21:13:43.965Z,23.12
2023-06-11T21:16:10.367Z,23.08
2023-06-11T21:18:36.776Z,23.01
2023-06-11T21:21:03.168Z,22.95
2023-06-11T21:23:29.528Z,22.88
2023-06-11T21:25:55.969Z,22.84
2023-06-11T21:28:22.401Z,22.80
2023-06-11T21:30:48.764Z,22.70
2023-06-11T21:33:15.244Z,22.66
2023-06-11T21:35:41.626Z,22.57
2023-06-11T21:38:08.004Z,22.49
2023-06-11T21:40:34.441Z,22.50
2023-06-11T21:43:00.919Z,22.44
2023-06-11T21:45:27.424Z,22.40
2023-06-11T21:47:54.006Z,22.37
2023-06-11T21:50:20.798Z,22.32
2023-06-11T21:52:47.261Z,22.27
2023-06-11T21:55:13.772Z,22.26
2023-06-11T21:57:40.198Z,22.22
2023-06-11T22:00:07.292Z,22.22
2023-06-11T22:02:33.759Z,22.18
2023-06-11T22:05:00.173Z,22.16
2023-06-11T22:07:26.583Z,22.08
2023-06-11T22:09:52.990Z,21.99
2023-06-11T22:12:19.401Z,22.00
2023-06-11T22:14:45.816Z,21.95
2023-06-11T22:17:12.239Z,21.92
2023-06-11T22:19:38.664Z,21.87
2023-06-11T22:22:05.734Z,21.84
2023-06-11T22:24:32.189Z,21.76
2023-06-11T22:26:58.652Z,21.73
2023-06-11T22:29:24.983Z,21.68
2023-06-11T22:31:51.381Z,21.66
2023-06-11T22:34:17.852Z,21.62
2023-06-11T22:36:44.319Z,21.55
2023-06-11T22:39:10.956Z,21.48
2023-06-11T22:41:37.370Z,21.37
2023-06-11T22:44:04.032Z,21.29
2023-06-11T22:46:30.482Z,21.21
2023-06-11T22:48:56.901Z,21.16
2023-06-11T22:51:23.329Z,21.03
2023-06-11T22:53:49.718Z,21.04
2023-06-11T22:56:16.136Z,21.05
2023-06-11T22:58:43.003Z,21.02
2023-06-11T23:01:09.392Z,20.98
2023-06-11T23:03:35.880Z,20.95
2023-06-11T23:06:02.620Z,20.86
2023-06-11T23:08:29.579Z,20.79
2023-06-11T23:10:56.031Z,20.73
2023-06-11T23:13:22.526Z,20.70
2023-06-11T23:15:48.874Z,20.65
2023-06-11T23:18:15.430Z,20.63
2023-06-11T23:20:41.904Z,20.62
2023-06-11T23:23:08.377Z,20.58
2023-06-11T23:25:34.779Z,20.56
2023-06-11T23:28:01.194Z,20.53
2023-06-11T23:30:27.595Z,20.49
2023-06-11T23:32:54.050Z,20.42
2023-06-11T23:35:20.653Z,20.35
2023-06-11T23:37:47.113Z,20.22
2023-06-11T23:40:13.733Z,20.09
2023-06-11T23:42:41.155Z,19.97
2023-06-11T23:45:07.985Z,19.87
2023-06-11T23:47:34.441Z,19.75
2023-06-11T23:50:01.942Z,19.58
2023-06-11T23:52:28.975Z,19.40
2023-06-11T23:54:55.454Z,19.20
2023-06-11T23:57:22.028Z,19.03
2023-06-11T23:59:48.436Z,18.91
